sensor_id;sensor_type;location;lat;lon;timestamp;P1;durP1;ratioP1;P2;durP2;ratioP2
26157;SDS011;67284;44.782;10.282;2023-05-29T00:02:24;16.88;;;12.77;;
26157;SDS011;67284;44.782;10.282;2023-05-29T00:07:16;17.75;;;13.05;;
26157;SDS011;67284;44.782;10.282;2023-05-29T00:12:08;16.92;;;12.05;;
26157;SDS011;67284;44.782;10.282;2023-05-29T00:17:00;16.23;;;12.55;;
26157;SDS011;67284;44.782;10.282;2023-05-29T00:21:51;14.60;;;11.52;;
26157;SDS011;67284;44.782;10.282;2023-05-29T00:26:43;18.35;;;11.88;;
26157;SDS011;67284;44.782;10.282;2023-05-29T00:31:36;16.90;;;12.88;;
26157;SDS011;67284;44.782;10.282;2023-05-29T00:36:29;15.00;;;11.32;;
26157;SDS011;67284;44.782;10.282;2023-05-29T00:41:23;22.50;;;12.32;;
26157;SDS011;67284;44.782;10.282;2023-05-29T00:46:15;23.13;;;13.65;;
26157;SDS011;67284;44.782;10.282;2023-05-29T00:51:08;21.55;;;11.93;;
26157;SDS011;67284;44.782;10.282;2023-05-29T00:56:02;20.92;;;12.13;;
26157;SDS011;67284;44.782;10.282;2023-05-29T01:00:56;21.35;;;12.65;;
26157;SDS011;67284;44.782;10.282;2023-05-29T01:05:48;17.60;;;12.00;;
26157;SDS011;67284;44.782;10.282;2023-05-29T01:10:40;21.38;;;12.95;;
26157;SDS011;67284;44.782;10.282;2023-05-29T01:15:44;20.85;;;12.38;;
26157;SDS011;67284;44.782;10.282;2023-05-29T01:20:57;29.40;;;15.63;;
26157;SDS011;67284;44.782;10.282;2023-05-29T01:31:17;24.42;;;14.38;;
26157;SDS011;67284;44.782;10.282;2023-05-29T01:36:11;19.60;;;13.88;;
26157;SDS011;67284;44.782;10.282;2023-05-29T01:41:03;18.60;;;13.45;;
26157;SDS011;67284;44.782;10.282;2023-05-29T01:45:56;26.15;;;15.52;;
26157;SDS011;67284;44.782;10.282;2023-05-29T01:50:49;17.77;;;13.20;;
26157;SDS011;67284;44.782;10.282;2023-05-29T01:55:41;21.90;;;14.77;;
26157;SDS011;67284;44.782;10.282;2023-05-29T02:00:33;21.40;;;15.77;;
26157;SDS011;67284;44.782;10.282;2023-05-29T02:05:26;20.52;;;15.75;;
26157;SDS011;67284;44.782;10.282;2023-05-29T02:10:18;25.48;;;15.70;;
26157;SDS011;67284;44.782;10.282;2023-05-29T02:15:09;21.05;;;15.93;;
26157;SDS011;67284;44.782;10.282;2023-05-29T02:20:02;25.55;;;16.13;;
26157;SDS011;67284;44.782;10.282;2023-05-29T02:24:58;25.70;;;15.68;;
26157;SDS011;67284;44.782;10.282;2023-05-29T02:29:50;23.85;;;15.63;;
26157;SDS011;67284;44.782;10.282;2023-05-29T02:34:42;24.05;;;16.67;;
26157;SDS011;67284;44.782;10.282;2023-05-29T02:39:34;28.35;;;15.63;;
26157;SDS011;67284;44.782;10.282;2023-05-29T02:44:26;26.50;;;16.25;;
26157;SDS011;67284;44.782;10.282;2023-05-29T02:49:17;26.05;;;16.13;;
26157;SDS011;67284;44.782;10.282;2023-05-29T02:54:09;19.70;;;14.57;;
26157;SDS011;67284;44.782;10.282;2023-05-29T02:59:04;28.15;;;15.88;;
26157;SDS011;67284;44.782;10.282;2023-05-29T03:03:56;20.00;;;14.35;;
26157;SDS011;67284;44.782;10.282;2023-05-29T03:08:49;21.17;;;14.63;;
26157;SDS011;67284;44.782;10.282;2023-05-29T03:13:41;19.48;;;14.63;;
26157;SDS011;67284;44.782;10.282;2023-05-29T03:18:34;20.30;;;14.05;;
26157;SDS011;67284;44.782;10.282;2023-05-29T03:23:26;23.23;;;14.98;;
26157;SDS011;67284;44.782;10.282;2023-05-29T03:28:18;20.05;;;14.15;;
26157;SDS011;67284;44.782;10.282;2023-05-29T03:33:11;22.42;;;15.27;;
26157;SDS011;67284;44.782;10.282;2023-05-29T03:38:26;21.60;;;14.30;;
26157;SDS011;67284;44.782;10.282;2023-05-29T03:43:22;22.17;;;14.50;;
26157;SDS011;67284;44.782;10.282;2023-05-29T03:48:15;21.45;;;14.57;;
26157;SDS011;67284;44.782;10.282;2023-05-29T03:53:09;20.75;;;14.43;;
26157;SDS011;67284;44.782;10.282;2023-05-29T03:58:01;23.98;;;15.50;;
26157;SDS011;67284;44.782;10.282;2023-05-29T04:02:54;28.85;;;16.40;;
26157;SDS011;67284;44.782;10.282;2023-05-29T04:07:47;27.45;;;16.50;;
26157;SDS011;67284;44.782;10.282;2023-05-29T04:12:39;25.55;;;16.17;;
26157;SDS011;67284;44.782;10.282;2023-05-29T04:17:31;25.60;;;16.13;;
26157;SDS011;67284;44.782;10.282;2023-05-29T04:22:23;20.10;;;15.35;;
26157;SDS011;67284;44.782;10.282;2023-05-29T04:27:15;22.58;;;14.75;;
26157;SDS011;67284;44.782;10.282;2023-05-29T04:32:08;24.25;;;12.98;;
26157;SDS011;67284;44.782;10.282;2023-05-29T04:37:03;24.55;;;14.82;;
26157;SDS011;67284;44.782;10.282;2023-05-29T04:41:55;23.00;;;17.15;;
26157;SDS011;67284;44.782;10.282;2023-05-29T04:46:51;30.23;;;16.23;;
26157;SDS011;67284;44.782;10.282;2023-05-29T04:51:44;24.10;;;14.60;;
26157;SDS011;67284;44.782;10.282;2023-05-29T04:56:38;21.27;;;14.88;;
26157;SDS011;67284;44.782;10.282;2023-05-29T05:01:33;19.50;;;13.80;;
26157;SDS011;67284;44.782;10.282;2023-05-29T05:06:26;25.73;;;14.73;;
26157;SDS011;67284;44.782;10.282;2023-05-29T05:11:18;24.90;;;14.15;;
26157;SDS011;67284;44.782;10.282;2023-05-29T05:16:12;22.58;;;15.07;;
26157;SDS011;67284;44.782;10.282;2023-05-29T05:21:05;18.40;;;13.68;;
26157;SDS011;67284;44.782;10.282;2023-05-29T05:25:59;22.48;;;14.10;;
26157;SDS011;67284;44.782;10.282;2023-05-29T05:30:53;19.00;;;14.25;;
26157;SDS011;67284;44.782;10.282;2023-05-29T05:35:45;25.02;;;14.27;;
26157;SDS011;67284;44.782;10.282;2023-05-29T05:40:37;22.98;;;15.07;;
26157;SDS011;67284;44.782;10.282;2023-05-29T05:45:37;22.45;;;16.45;;
26157;SDS011;67284;44.782;10.282;2023-05-29T05:50:34;25.75;;;17.60;;
26157;SDS011;67284;44.782;10.282;2023-05-29T05:55:27;25.70;;;17.77;;
26157;SDS011;67284;44.782;10.282;2023-05-29T06:00:19;28.38;;;18.77;;
26157;SDS011;67284;44.782;10.282;2023-05-29T06:05:11;26.83;;;17.17;;
26157;SDS011;67284;44.782;10.282;2023-05-29T06:10:06;30.77;;;20.92;;
26157;SDS011;67284;44.782;10.282;2023-05-29T06:14:58;33.88;;;22.00;;
26157;SDS011;67284;44.782;10.282;2023-05-29T06:19:50;33.08;;;22.35;;
26157;SDS011;67284;44.782;10.282;2023-05-29T06:24:42;34.22;;;22.00;;
26157;SDS011;67284;44.782;10.282;2023-05-29T06:29:34;41.33;;;23.70;;
26157;SDS011;67284;44.782;10.282;2023-05-29T06:34:27;43.67;;;24.45;;
26157;SDS011;67284;44.782;10.282;2023-05-29T06:39:19;39.83;;;24.73;;
26157;SDS011;67284;44.782;10.282;2023-05-29T06:44:11;36.72;;;24.92;;
26157;SDS011;67284;44.782;10.282;2023-05-29T06:49:04;41.60;;;27.83;;
26157;SDS011;67284;44.782;10.282;2023-05-29T06:53:57;46.67;;;26.80;;
26157;SDS011;67284;44.782;10.282;2023-05-29T06:58:52;52.35;;;30.30;;
26157;SDS011;67284;44.782;10.282;2023-05-29T07:03:46;46.33;;;30.48;;
26157;SDS011;67284;44.782;10.282;2023-05-29T07:08:38;41.28;;;27.08;;
26157;SDS011;67284;44.782;10.282;2023-05-29T07:13:30;45.85;;;29.67;;
26157;SDS011;67284;44.782;10.282;2023-05-29T07:18:22;43.33;;;30.33;;
26157;SDS011;67284;44.782;10.282;2023-05-29T07:23:14;51.83;;;32.00;;
26157;SDS011;67284;44.782;10.282;2023-05-29T07:28:06;46.67;;;29.92;;
26157;SDS011;67284;44.782;10.282;2023-05-29T07:33:13;48.45;;;30.75;;
26157;SDS011;67284;44.782;10.282;2023-05-29T07:38:05;48.35;;;31.63;;
26157;SDS011;67284;44.782;10.282;2023-05-29T07:43:02;45.05;;;30.52;;
26157;SDS011;67284;44.782;10.282;2023-05-29T07:48:10;43.90;;;29.50;;
26157;SDS011;67284;44.782;10.282;2023-05-29T07:53:05;44.80;;;28.98;;
26157;SDS011;67284;44.782;10.282;2023-05-29T07:58:02;42.33;;;28.52;;
26157;SDS011;67284;44.782;10.282;2023-05-29T08:02:54;44.30;;;29.60;;
26157;SDS011;67284;44.782;10.282;2023-05-29T08:07:55;37.38;;;24.35;;
26157;SDS011;67284;44.782;10.282;2023-05-29T08:12:47;34.92;;;22.90;;
26157;SDS011;67284;44.782;10.282;2023-05-29T08:17:40;34.13;;;22.83;;
26157;SDS011;67284;44.782;10.282;2023-05-29T08:22:32;40.63;;;22.73;;
26157;SDS011;67284;44.782;10.282;2023-05-29T08:27:25;28.27;;;20.13;;
26157;SDS011;67284;44.782;10.282;2023-05-29T08:32:17;31.45;;;19.13;;
26157;SDS011;67284;44.782;10.282;2023-05-29T08:37:09;29.60;;;20.77;;
26157;SDS011;67284;44.782;10.282;2023-05-29T08:47:02;26.77;;;18.50;;
26157;SDS011;67284;44.782;10.282;2023-05-29T08:52:02;25.13;;;18.30;;
26157;SDS011;67284;44.782;10.282;2023-05-29T08:57:01;26.75;;;18.08;;
26157;SDS011;67284;44.782;10.282;2023-05-29T09:01:53;30.25;;;16.65;;
26157;SDS011;67284;44.782;10.282;2023-05-29T09:06:45;27.52;;;18.77;;
26157;SDS011;67284;44.782;10.282;2023-05-29T09:11:38;27.92;;;18.15;;
26157;SDS011;67284;44.782;10.282;2023-05-29T09:16:30;28.10;;;18.90;;
26157;SDS011;67284;44.782;10.282;2023-05-29T09:21:26;27.63;;;18.30;;
26157;SDS011;67284;44.782;10.282;2023-05-29T09:26:20;27.10;;;18.70;;
26157;SDS011;67284;44.782;10.282;2023-05-29T09:31:14;25.40;;;16.67;;
26157;SDS011;67284;44.782;10.282;2023-05-29T09:36:10;32.80;;;19.73;;
26157;SDS011;67284;44.782;10.282;2023-05-29T09:41:11;32.03;;;19.90;;
26157;SDS011;67284;44.782;10.282;2023-05-29T09:46:03;33.20;;;21.02;;
26157;SDS011;67284;44.782;10.282;2023-05-29T09:50:58;33.75;;;21.02;;
26157;SDS011;67284;44.782;10.282;2023-05-29T09:55:54;27.88;;;19.23;;
26157;SDS011;67284;44.782;10.282;2023-05-29T10:00:47;31.50;;;19.88;;
26157;SDS011;67284;44.782;10.282;2023-05-29T10:05:40;30.30;;;19.50;;
26157;SDS011;67284;44.782;10.282;2023-05-29T10:10:33;29.83;;;17.92;;
26157;SDS011;67284;44.782;10.282;2023-05-29T10:15:27;27.20;;;18.35;;
26157;SDS011;67284;44.782;10.282;2023-05-29T10:20:22;27.50;;;17.85;;
26157;SDS011;67284;44.782;10.282;2023-05-29T10:25:14;26.35;;;17.75;;
26157;SDS011;67284;44.782;10.282;2023-05-29T10:30:10;24.58;;;15.45;;
26157;SDS011;67284;44.782;10.282;2023-05-29T10:35:27;20.92;;;14.88;;
26157;SDS011;67284;44.782;10.282;2023-05-29T10:40:27;22.13;;;13.73;;
26157;SDS011;67284;44.782;10.282;2023-05-29T10:50:55;17.80;;;12.88;;
26157;SDS011;67284;44.782;10.282;2023-05-29T10:55:39;19.85;;;12.68;;
26157;SDS011;67284;44.782;10.282;2023-05-29T11:00:32;18.42;;;11.95;;
26157;SDS011;67284;44.782;10.282;2023-05-29T11:05:25;17.38;;;11.50;;
26157;SDS011;67284;44.782;10.282;2023-05-29T11:10:17;19.05;;;12.65;;
26157;SDS011;67284;44.782;10.282;2023-05-29T11:15:29;18.25;;;12.50;;
26157;SDS011;67284;44.782;10.282;2023-05-29T11:25:28;19.27;;;13.68;;
26157;SDS011;67284;44.782;10.282;2023-05-29T11:30:24;20.50;;;14.55;;
26157;SDS011;67284;44.782;10.282;2023-05-29T11:35:16;21.27;;;13.77;;
26157;SDS011;67284;44.782;10.282;2023-05-29T11:40:11;19.52;;;12.05;;
26157;SDS011;67284;44.782;10.282;2023-05-29T11:45:13;18.85;;;12.98;;
26157;SDS011;67284;44.782;10.282;2023-05-29T11:50:17;19.80;;;13.00;;
26157;SDS011;67284;44.782;10.282;2023-05-29T11:55:19;20.38;;;13.15;;
26157;SDS011;67284;44.782;10.282;2023-05-29T12:00:13;21.00;;;13.32;;
26157;SDS011;67284;44.782;10.282;2023-05-29T12:05:10;18.25;;;13.07;;
26157;SDS011;67284;44.782;10.282;2023-05-29T12:10:08;19.08;;;12.00;;
26157;SDS011;67284;44.782;10.282;2023-05-29T12:15:01;16.50;;;11.00;;
26157;SDS011;67284;44.782;10.282;2023-05-29T12:19:57;18.73;;;12.57;;
26157;SDS011;67284;44.782;10.282;2023-05-29T12:24:49;17.48;;;11.23;;
26157;SDS011;67284;44.782;10.282;2023-05-29T12:29:41;20.58;;;12.25;;
26157;SDS011;67284;44.782;10.282;2023-05-29T12:34:36;15.55;;;10.32;;
26157;SDS011;67284;44.782;10.282;2023-05-29T12:39:28;14.55;;;10.90;;
26157;SDS011;67284;44.782;10.282;2023-05-29T12:44:20;15.70;;;10.77;;
26157;SDS011;67284;44.782;10.282;2023-05-29T12:49:15;15.70;;;11.07;;
26157;SDS011;67284;44.782;10.282;2023-05-29T12:54:11;12.95;;;10.57;;
26157;SDS011;67284;44.782;10.282;2023-05-29T12:59:09;20.55;;;11.20;;
26157;SDS011;67284;44.782;10.282;2023-05-29T13:04:02;21.35;;;12.07;;
26157;SDS011;67284;44.782;10.282;2023-05-29T13:08:55;16.65;;;11.13;;
26157;SDS011;67284;44.782;10.282;2023-05-29T13:13:47;14.30;;;11.05;;
26157;SDS011;67284;44.782;10.282;2023-05-29T13:18:39;16.70;;;11.07;;
26157;SDS011;67284;44.782;10.282;2023-05-29T13:23:31;16.60;;;10.57;;
26157;SDS011;67284;44.782;10.282;2023-05-29T13:28:22;14.90;;;10.35;;
26157;SDS011;67284;44.782;10.282;2023-05-29T13:33:15;16.02;;;10.20;;
26157;SDS011;67284;44.782;10.282;2023-05-29T13:38:07;12.20;;;9.77;;
26157;SDS011;67284;44.782;10.282;2023-05-29T13:42:59;14.27;;;8.80;;
26157;SDS011;67284;44.782;10.282;2023-05-29T13:47:51;17.85;;;10.63;;
26157;SDS011;67284;44.782;10.282;2023-05-29T13:52:43;14.90;;;9.55;;
26157;SDS011;67284;44.782;10.282;2023-05-29T13:57:35;17.05;;;10.00;;
26157;SDS011;67284;44.782;10.282;2023-05-29T14:02:28;14.50;;;9.05;;
26157;SDS011;67284;44.782;10.282;2023-05-29T14:07:20;11.38;;;8.23;;
26157;SDS011;67284;44.782;10.282;2023-05-29T14:12:12;14.77;;;8.70;;
26157;SDS011;67284;44.782;10.282;2023-05-29T14:17:04;14.68;;;8.07;;
26157;SDS011;67284;44.782;10.282;2023-05-29T14:21:57;12.68;;;8.50;;
26157;SDS011;67284;44.782;10.282;2023-05-29T14:26:49;15.80;;;7.68;;
26157;SDS011;67284;44.782;10.282;2023-05-29T14:31:43;13.18;;;7.68;;
26157;SDS011;67284;44.782;10.282;2023-05-29T14:36:35;12.02;;;8.20;;
26157;SDS011;67284;44.782;10.282;2023-05-29T14:41:28;11.55;;;8.68;;
26157;SDS011;67284;44.782;10.282;2023-05-29T14:46:20;18.20;;;8.38;;
26157;SDS011;67284;44.782;10.282;2023-05-29T14:51:12;14.50;;;8.73;;
26157;SDS011;67284;44.782;10.282;2023-05-29T14:56:04;11.88;;;8.73;;
26157;SDS011;67284;44.782;10.282;2023-05-29T15:00:57;10.65;;;8.35;;
26157;SDS011;67284;44.782;10.282;2023-05-29T15:05:49;14.23;;;8.13;;
26157;SDS011;67284;44.782;10.282;2023-05-29T15:10:41;14.70;;;8.57;;
26157;SDS011;67284;44.782;10.282;2023-05-29T15:15:33;16.00;;;8.40;;
26157;SDS011;67284;44.782;10.282;2023-05-29T15:20:38;10.40;;;7.68;;
26157;SDS011;67284;44.782;10.282;2023-05-29T15:25:30;14.57;;;8.27;;
26157;SDS011;67284;44.782;10.282;2023-05-29T15:30:22;14.05;;;8.90;;
26157;SDS011;67284;44.782;10.282;2023-05-29T15:35:14;12.10;;;7.95;;
26157;SDS011;67284;44.782;10.282;2023-05-29T15:40:07;12.10;;;7.88;;
26157;SDS011;67284;44.782;10.282;2023-05-29T15:45:03;13.45;;;8.57;;
26157;SDS011;67284;44.782;10.282;2023-05-29T15:49:56;13.85;;;7.63;;
26157;SDS011;67284;44.782;10.282;2023-05-29T15:54:48;11.93;;;7.20;;
26157;SDS011;67284;44.782;10.282;2023-05-29T15:59:40;17.75;;;8.57;;
26157;SDS011;67284;44.782;10.282;2023-05-29T16:04:32;11.15;;;7.45;;
26157;SDS011;67284;44.782;10.282;2023-05-29T16:09:24;11.23;;;8.02;;
26157;SDS011;67284;44.782;10.282;2023-05-29T16:14:16;12.18;;;7.03;;
26157;SDS011;67284;44.782;10.282;2023-05-29T16:19:08;8.95;;;6.75;;
26157;SDS011;67284;44.782;10.282;2023-05-29T16:24:00;11.15;;;7.47;;
26157;SDS011;67284;44.782;10.282;2023-05-29T16:28:55;10.85;;;7.07;;
26157;SDS011;67284;44.782;10.282;2023-05-29T16:33:49;8.90;;;7.20;;
26157;SDS011;67284;44.782;10.282;2023-05-29T16:38:40;11.60;;;6.90;;
26157;SDS011;67284;44.782;10.282;2023-05-29T16:43:32;10.38;;;6.78;;
26157;SDS011;67284;44.782;10.282;2023-05-29T16:48:24;13.90;;;6.72;;
26157;SDS011;67284;44.782;10.282;2023-05-29T16:53:16;9.38;;;5.97;;
26157;SDS011;67284;44.782;10.282;2023-05-29T16:58:08;8.63;;;5.78;;
26157;SDS011;67284;44.782;10.282;2023-05-29T17:03:00;8.70;;;5.88;;
26157;SDS011;67284;44.782;10.282;2023-05-29T17:07:52;8.85;;;5.60;;
26157;SDS011;67284;44.782;10.282;2023-05-29T17:12:44;11.93;;;5.60;;
26157;SDS011;67284;44.782;10.282;2023-05-29T17:17:37;9.85;;;5.65;;
26157;SDS011;67284;44.782;10.282;2023-05-29T17:22:29;9.38;;;6.03;;
26157;SDS011;67284;44.782;10.282;2023-05-29T17:27:21;11.93;;;6.43;;
26157;SDS011;67284;44.782;10.282;2023-05-29T17:32:13;9.43;;;5.85;;
26157;SDS011;67284;44.782;10.282;2023-05-29T17:37:05;12.70;;;5.90;;
26157;SDS011;67284;44.782;10.282;2023-05-29T17:42:00;10.25;;;6.10;;
26157;SDS011;67284;44.782;10.282;2023-05-29T17:46:53;13.15;;;6.00;;
26157;SDS011;67284;44.782;10.282;2023-05-29T17:51:45;9.45;;;6.32;;
26157;SDS011;67284;44.782;10.282;2023-05-29T17:56:37;10.15;;;5.60;;
26157;SDS011;67284;44.782;10.282;2023-05-29T18:01:30;12.90;;;5.68;;
26157;SDS011;67284;44.782;10.282;2023-05-29T18:06:21;9.10;;;5.55;;
26157;SDS011;67284;44.782;10.282;2023-05-29T18:11:14;8.82;;;5.88;;
26157;SDS011;67284;44.782;10.282;2023-05-29T18:16:06;10.50;;;5.18;;
26157;SDS011;67284;44.782;10.282;2023-05-29T18:21:01;7.25;;;5.47;;
26157;SDS011;67284;44.782;10.282;2023-05-29T18:25:53;9.95;;;6.38;;
26157;SDS011;67284;44.782;10.282;2023-05-29T18:30:46;13.00;;;6.70;;
26157;SDS011;67284;44.782;10.282;2023-05-29T18:35:38;10.63;;;5.93;;
26157;SDS011;67284;44.782;10.282;2023-05-29T18:40:30;8.63;;;5.40;;
26157;SDS011;67284;44.782;10.282;2023-05-29T18:45:22;8.35;;;5.43;;
26157;SDS011;67284;44.782;10.282;2023-05-29T18:50:14;14.63;;;6.57;;
26157;SDS011;67284;44.782;10.282;2023-05-29T18:55:06;13.20;;;6.35;;
26157;SDS011;67284;44.782;10.282;2023-05-29T18:59:59;8.85;;;5.57;;
26157;SDS011;67284;44.782;10.282;2023-05-29T19:04:51;13.60;;;6.00;;
26157;SDS011;67284;44.782;10.282;2023-05-29T19:09:43;11.57;;;6.45;;
26157;SDS011;67284;44.782;10.282;2023-05-29T19:14:35;13.98;;;6.70;;
26157;SDS011;67284;44.782;10.282;2023-05-29T19:19:27;11.10;;;6.60;;
26157;SDS011;67284;44.782;10.282;2023-05-29T19:24:19;12.90;;;6.72;;
26157;SDS011;67284;44.782;10.282;2023-05-29T19:29:11;8.88;;;6.20;;
26157;SDS011;67284;44.782;10.282;2023-05-29T19:34:03;10.93;;;5.80;;
26157;SDS011;67284;44.782;10.282;2023-05-29T19:38:56;9.95;;;6.05;;
26157;SDS011;67284;44.782;10.282;2023-05-29T19:43:49;9.40;;;5.95;;
26157;SDS011;67284;44.782;10.282;2023-05-29T19:48:41;10.30;;;6.80;;
26157;SDS011;67284;44.782;10.282;2023-05-29T19:53:33;13.00;;;6.07;;
26157;SDS011;67284;44.782;10.282;2023-05-29T19:58:25;11.20;;;6.25;;
26157;SDS011;67284;44.782;10.282;2023-05-29T20:03:17;12.73;;;7.07;;
26157;SDS011;67284;44.782;10.282;2023-05-29T20:08:09;10.27;;;7.03;;
26157;SDS011;67284;44.782;10.282;2023-05-29T20:13:01;14.23;;;7.82;;
26157;SDS011;67284;44.782;10.282;2023-05-29T20:17:53;13.68;;;7.30;;
26157;SDS011;67284;44.782;10.282;2023-05-29T20:22:47;12.93;;;7.20;;
26157;SDS011;67284;44.782;10.282;2023-05-29T20:27:39;13.10;;;7.88;;
26157;SDS011;67284;44.782;10.282;2023-05-29T20:32:32;13.88;;;7.82;;
26157;SDS011;67284;44.782;10.282;2023-05-29T20:37:24;13.52;;;8.80;;
26157;SDS011;67284;44.782;10.282;2023-05-29T20:42:16;13.60;;;8.88;;
26157;SDS011;67284;44.782;10.282;2023-05-29T20:47:08;16.98;;;9.70;;
26157;SDS011;67284;44.782;10.282;2023-05-29T20:52:00;14.52;;;9.07;;
26157;SDS011;67284;44.782;10.282;2023-05-29T20:56:52;15.07;;;9.57;;
26157;SDS011;67284;44.782;10.282;2023-05-29T21:01:44;17.70;;;9.80;;
26157;SDS011;67284;44.782;10.282;2023-05-29T21:06:37;12.70;;;10.00;;
26157;SDS011;67284;44.782;10.282;2023-05-29T21:11:29;13.00;;;9.07;;
26157;SDS011;67284;44.782;10.282;2023-05-29T21:16:20;13.05;;;8.68;;
26157;SDS011;67284;44.782;10.282;2023-05-29T21:21:12;13.15;;;7.97;;
26157;SDS011;67284;44.782;10.282;2023-05-29T21:26:06;14.40;;;8.00;;
26157;SDS011;67284;44.782;10.282;2023-05-29T21:30:58;12.15;;;8.63;;
26157;SDS011;67284;44.782;10.282;2023-05-29T21:35:53;11.13;;;7.88;;
26157;SDS011;67284;44.782;10.282;2023-05-29T21:40:45;12.68;;;7.38;;
26157;SDS011;67284;44.782;10.282;2023-05-29T21:45:37;12.10;;;7.85;;
26157;SDS011;67284;44.782;10.282;2023-05-29T21:50:29;9.80;;;7.25;;
26157;SDS011;67284;44.782;10.282;2023-05-29T21:55:21;12.13;;;7.43;;
26157;SDS011;67284;44.782;10.282;2023-05-29T22:00:13;10.18;;;7.63;;
26157;SDS011;67284;44.782;10.282;2023-05-29T22:05:05;11.43;;;8.20;;
26157;SDS011;67284;44.782;10.282;2023-05-29T22:09:58;10.90;;;7.40;;
26157;SDS011;67284;44.782;10.282;2023-05-29T22:14:51;13.23;;;8.13;;
26157;SDS011;67284;44.782;10.282;2023-05-29T22:19:44;16.48;;;9.23;;
26157;SDS011;67284;44.782;10.282;2023-05-29T22:24:35;12.52;;;9.20;;
26157;SDS011;67284;44.782;10.282;2023-05-29T22:29:28;14.20;;;8.98;;
26157;SDS011;67284;44.782;10.282;2023-05-29T22:34:22;15.55;;;9.77;;
26157;SDS011;67284;44.782;10.282;2023-05-29T22:39:14;12.77;;;9.35;;
26157;SDS011;67284;44.782;10.282;2023-05-29T22:44:07;15.40;;;10.07;;
26157;SDS011;67284;44.782;10.282;2023-05-29T22:48:59;14.65;;;8.70;;
26157;SDS011;67284;44.782;10.282;2023-05-29T22:53:51;14.93;;;9.07;;
26157;SDS011;67284;44.782;10.282;2023-05-29T22:58:43;15.95;;;8.52;;
26157;SDS011;67284;44.782;10.282;2023-05-29T23:03:35;14.55;;;9.00;;
26157;SDS011;67284;44.782;10.282;2023-05-29T23:08:27;13.57;;;8.15;;
26157;SDS011;67284;44.782;10.282;2023-05-29T23:13:19;11.93;;;8.10;;
26157;SDS011;67284;44.782;10.282;2023-05-29T23:18:11;11.15;;;8.25;;
26157;SDS011;67284;44.782;10.282;2023-05-29T23:23:03;15.80;;;9.00;;
26157;SDS011;67284;44.782;10.282;2023-05-29T23:27:55;13.60;;;7.85;;
26157;SDS011;67284;44.782;10.282;2023-05-29T23:32:47;13.82;;;7.80;;
26157;SDS011;67284;44.782;10.282;2023-05-29T23:37:38;11.63;;;7.55;;
26157;SDS011;67284;44.782;10.282;2023-05-29T23:42:30;11.48;;;7.55;;
26157;SDS011;67284;44.782;10.282;2023-05-29T23:47:22;11.80;;;7.85;;
26157;SDS011;67284;44.782;10.282;2023-05-29T23:52:14;10.00;;;7.45;;
26157;SDS011;67284;44.782;10.282;2023-05-29T23:57:06;11.65;;;8.13;;
